Kezdőlap
METAR-TAF:

METAR-TAF

Repülőterek :

Colorado City, Arizona, Amerikai Egyesült Államok

földrajzi szélesség: 36-57-36N, földrajzi hosszúság: 113-00-50W, magasság: 1486 m

Jelenlegi meteorológiai megfigyelések

A jelentés 2 órával és 36 perccel ezelõtt készült, 01:35 UTC
Nyugat-délnyugati szél 6 kt
Hőmérséklet 27°C
Páratartalom 12%
Légköri nyomás 1014 hPa
Látótávolság: 16.1 km
Derült ég

METAR: KAZC 190135Z AUTO 24006KT 10SM CLR 27/M05 A2995 RMK AO2

Idő: 21:11 (04:11 UTC)


TAF: hiányzik

Meteorológiai megfigyelések és előrejelzések több, mint 4000 repülőtéren (METAR és TAF jelentéseket).

A térképen piros és sárga pontok jelzik az elérhető meteorológiai állomásokat.

Mozgassa az egeret a pont fölött, hogy megjelenjen az állomás neve.

Azután kattintson az időjárási megfigyelések és előrejelzések megtekintéséhez.

A térkép megváltoztatása: kattintson a fekete keresztel jelölt zöld gombra ráközelítéshez, a vonallal jelölt zöld gombra távolításhoz, vagy a zöld nyilakra a szomszédos térképek eléréséhez.


METAR-TAF: